Time,TemperatureF,DewpointF,PressureIn,WindDirection,WindDirectionDegrees,WindSpeedMPH,WindSpeedGustMPH,Humidity,HourlyPrecipIn,Conditions,Clouds,dailyrainin,SoftwareType,DateUTC
2013-08-15 00:03:00,66.0,53.0,-100.00,NNW,340,7.0,-999.0,63,0.00,,,0.00,,2013-08-15 04:03:00,
2013-08-15 00:12:00,66.0,53.0,-100.00,NNW,340,7.0,-999.0,63,0.00,,,0.00,,2013-08-15 04:12:00,
2013-08-15 00:52:00,64.0,52.0,-100.00,NNW,332,6.0,-999.0,66,0.00,,,0.00,,2013-08-15 04:52:00,
2013-08-15 01:02:00,64.0,52.0,-100.00,NNW,332,6.0,-999.0,66,0.00,,,0.00,,2013-08-15 05:02:00,
2013-08-15 01:12:00,64.0,52.0,-100.00,NNW,332,6.0,-999.0,66,0.00,,,0.00,,2013-08-15 05:12:00,
2013-08-15 01:52:00,63.0,52.0,-100.00,North,1,4.0,-999.0,67,0.00,,,0.00,,2013-08-15 05:52:00,
2013-08-15 02:02:00,63.0,52.0,-100.00,North,1,4.0,-999.0,67,0.00,,,0.00,,2013-08-15 06:02:00,
2013-08-15 02:11:00,63.0,52.0,-100.00,North,1,4.0,-999.0,67,0.00,,,0.00,,2013-08-15 06:11:00,
2013-08-15 02:52:00,65.0,55.0,-100.00,NNW,341,4.0,-999.0,69,0.00,,,0.00,,2013-08-15 06:52:00,
2013-08-15 03:02:00,65.0,55.0,-100.00,NNW,341,4.0,-999.0,69,0.00,,,0.00,,2013-08-15 07:02:00,
2013-08-15 03:11:00,65.0,55.0,-100.00,NNW,341,4.0,-999.0,69,0.00,,,0.00,,2013-08-15 07:11:00,
2013-08-15 03:52:00,64.0,54.0,-100.00,NNW,348,5.0,-999.0,70,0.00,,,0.00,,2013-08-15 07:52:00,
2013-08-15 04:02:00,64.0,54.0,-100.00,NNW,348,5.0,-999.0,70,0.00,,,0.00,,2013-08-15 08:02:00,
2013-08-15 04:11:00,64.0,54.0,-100.00,NNW,348,5.0,-999.0,70,0.00,,,0.00,,2013-08-15 08:11:00,
2013-08-15 04:52:00,64.0,52.0,-100.00,NNE,14,8.0,-999.0,65,0.00,,,-99.99,,2013-08-15 08:52:00,
2013-08-15 05:01:00,64.0,52.0,-100.00,NNE,14,8.0,-999.0,65,0.00,,,-99.99,,2013-08-15 09:01:00,
2013-08-15 05:11:00,64.0,52.0,-100.00,NNE,14,8.0,-999.0,65,0.00,,,-99.99,,2013-08-15 09:11:00,
2013-08-15 05:53:00,62.0,51.0,-100.00,North,6,8.0,-999.0,67,0.00,,,-99.99,,2013-08-15 09:53:00,
2013-08-15 06:03:00,62.0,51.0,-100.00,North,6,8.0,-999.0,67,0.00,,,-99.99,,2013-08-15 10:03:00,
2013-08-15 06:12:00,62.0,51.0,-100.00,North,6,8.0,-999.0,67,0.00,,,-99.99,,2013-08-15 10:12:00,
2013-08-15 06:52:00,63.0,51.0,-100.00,North,5,6.0,-999.0,66,0.00,,,-99.99,,2013-08-15 10:52:00,
2013-08-15 07:02:00,63.0,51.0,-100.00,North,5,6.0,-999.0,66,0.00,,,-99.99,,2013-08-15 11:02:00,
2013-08-15 07:12:00,63.0,51.0,-100.00,North,5,6.0,-999.0,66,0.00,,,-99.99,,2013-08-15 11:12:00,
2013-08-15 07:52:00,63.0,51.0,-100.00,NNE,15,6.0,-999.0,64,0.00,,,-99.99,,2013-08-15 11:52:00,
2013-08-15 08:01:00,63.0,51.0,-100.00,NNE,15,6.0,-999.0,64,0.00,,,-99.99,,2013-08-15 12:01:00,
2013-08-15 08:11:00,63.0,51.0,-100.00,NNE,15,6.0,-999.0,64,0.00,,,-99.99,,2013-08-15 12:11:00,
2013-08-15 08:52:00,66.0,49.0,-100.00,North,9,8.0,-999.0,55,0.00,,,-99.99,,2013-08-15 12:52:00,
2013-08-15 09:01:00,66.0,49.0,-100.00,North,9,8.0,-999.0,55,0.00,,,-99.99,,2013-08-15 13:01:00,
2013-08-15 09:11:00,66.0,49.0,-100.00,North,9,8.0,-999.0,55,0.00,,,-99.99,,2013-08-15 13:11:00,
2013-08-15 11:15:00,70.0,47.0,-100.00,NE,34,4.0,-999.0,44,0.00,,,-99.99,,2013-08-15 15:15:00,
2013-08-15 11:54:00,70.0,47.0,-100.00,NE,34,4.0,-999.0,44,0.00,,,-99.99,,2013-08-15 15:54:00,
2013-08-15 12:04:00,70.0,47.0,-100.00,NE,34,4.0,-999.0,44,0.00,,,-99.99,,2013-08-15 16:04:00,
2013-08-15 12:15:00,69.0,47.0,-100.00,NW,309,3.0,-999.0,46,0.00,,,-99.99,,2013-08-15 16:15:00,
2013-08-15 12:55:00,69.0,47.0,-100.00,NW,309,3.0,-999.0,46,0.00,,,-99.99,,2013-08-15 16:55:00,
2013-08-15 13:06:00,69.0,47.0,-100.00,NW,309,3.0,-999.0,46,0.00,,,-99.99,,2013-08-15 17:06:00,
2013-08-15 15:07:00,-999.0,-99.9,-100.00,WNW,300,7.0,-999.0,-999,0.00,,,-99.99,,2013-08-15 19:07:00,
2013-08-15 15:15:00,72.0,50.0,-100.00,West,276,8.0,-999.0,46,0.00,,,-99.99,,2013-08-15 19:15:00,
2013-08-15 16:14:00,72.0,50.0,-100.00,West,276,8.0,-999.0,46,0.00,,,-99.99,,2013-08-15 20:14:00,
2013-08-15 16:15:00,73.0,48.0,-100.00,NW,319,9.0,-999.0,41,0.00,,,-99.99,,2013-08-15 20:15:00,
2013-08-15 17:05:00,73.0,48.0,-100.00,NW,319,9.0,-999.0,41,0.00,,,-99.99,,2013-08-15 21:05:00,
2013-08-15 17:15:00,73.0,49.0,-100.00,WNW,292,6.0,-999.0,43,0.00,,,-99.99,,2013-08-15 21:15:00,
2013-08-15 17:57:00,73.0,49.0,-100.00,WNW,292,6.0,-999.0,43,0.00,,,-99.99,,2013-08-15 21:57:00,
2013-08-15 18:09:00,73.0,49.0,-100.00,WNW,292,6.0,-999.0,43,0.00,,,-99.99,,2013-08-15 22:09:00,
2013-08-15 18:15:00,73.0,49.0,-100.00,West,281,10.0,-999.0,43,0.00,,,-99.99,,2013-08-15 22:15:00,
2013-08-15 18:58:00,73.0,49.0,-100.00,West,281,10.0,-999.0,43,0.00,,,-99.99,,2013-08-15 22:58:00,
2013-08-15 19:08:00,73.0,49.0,-100.00,West,281,10.0,-999.0,43,0.00,,,-99.99,,2013-08-15 23:08:00,
2013-08-15 19:55:00,71.0,49.0,-100.00,WNW,285,6.0,-999.0,45,0.00,,,-99.99,,2013-08-15 23:55:00,
2013-08-15 20:08:00,71.0,49.0,-100.00,WNW,285,6.0,-999.0,45,0.00,,,-99.99,,2013-08-16 00:08:00,
2013-08-15 21:54:00,70.0,50.0,-100.00,SSW,205,4.0,-999.0,49,0.00,,,0.00,,2013-08-16 01:54:00,
2013-08-15 22:02:00,70.0,50.0,-100.00,SSW,205,4.0,-999.0,49,0.00,,,0.00,,2013-08-16 02:02:00,
2013-08-15 22:12:00,70.0,50.0,-100.00,SSW,205,4.0,-999.0,49,0.00,,,0.00,,2013-08-16 02:12:00,
2013-08-15 22:52:00,71.0,51.0,-100.00,SSE,166,2.0,-999.0,50,0.00,,,0.00,,2013-08-16 02:52:00,
2013-08-15 23:03:00,71.0,51.0,-100.00,SSE,166,2.0,-999.0,50,0.00,,,0.00,,2013-08-16 03:03:00,
2013-08-15 23:11:00,71.0,51.0,-100.00,SSE,166,2.0,-999.0,50,0.00,,,0.00,,2013-08-16 03:11:00,
2013-08-15 23:53:00,69.0,50.0,-100.00,SW,218,1.0,-999.0,50,0.00,,,0.00,,2013-08-16 03:53:00,